Detall de PIREP

Printer-friendly versionPDF version

[2009/12/07 17:22:00]
Flight IATA:CT2203
Pilot Number:026
Company ICAO:CAT
Aircraft Type:DC85/A
PAX:136
Departing Airport: LFBD
Destination Airport: LFMP
Alternate Airport:LFBO
Online: VATSIM
Route:SAU G39 BRUSC A27 SIJAN
Flight Level:FL180
No Slew and time accel
No pause
Crash detect
Detect pilot in Cockpit between each 30 and 45 minutes
17:22 Zero fuel Weight: 189967 Lbs, Fuel Weight: 23873 Lbs
17:22 VATSIM:LFBD 071700Z 20008KT 9999 -RA FEW005 SCT023 BKN083 12/10 Q1013 TEMPO 3000 DZ BKN003
17:22 VATSIM:LFMP 071700Z VRB01KT 7000 SCT007 OVC018 13/11 Q1013 NOSIG
17:22 VOICE CATALONIAN / CT2203
17:26 Parking Brakes off
17:32 Take-off
17:32 Take off Weight: 212817 Lbs
17:32 Wind: 204º @ 008 Knots Heading: 224º
17:32 POS N44º 49´ 36´´ W000º 43´ 03´´
17:32 Gear Up: 163 Knots
17:32 Flaps:3 at 164 Knots
17:33 Flaps:2 at 180 Knots
17:34 Flaps:1 at 207 Knots
17:35 Flaps
:0 at 199 Knots
17:39 TOC
17:39 Fuel Weight: 20188 Lb
17:39 TOD
17:39 Fuel Weight: 19973 Lb
17:40 TOC
17:40 Fuel Weight: 19912 Lb
17:47 Wind:240º@011 Knots Heading: 119º Ground Speed: 412 Knots Altitude 17988 ft
18:02 Wind:264º@004 Knots Heading: 163º Ground Speed: 409 Knots Altitude 18005 ft
18:03 TOD
18:03 Fuel Weight: 14618 Lb
18:11 Flaps:1 at 247 Knots
18:16 Flaps:2 at 162 Knots
18:16 Gear Down: 176 Knots
18:17 Wind:311º@004 Knots Heading: 326º Ground Speed: 168 Knots Altitude 1991 ft
18:17 Flaps:3 at 158 Knots
18:18 Flaps:4 at 150 Knots
18:19 Flaps:5 at 153 Knots
18:19 TouchDown:Rate -364 ft/min Speed: 152 Knots
18:20 VATSIM:LFMP 071800Z 31004KT 7000 OVC015 13/11 Q1014 NOSIG
18:20 Land
18:20 Wind:312º@004 Knots
18:20 Heading: 328º
18:20 Flight Duration: 00:48
18:20 Landing Weight: 202907 Lbs
18:20 POS N42º 44´ 56´´ E002º 51´ 57´´
18:24 Parking
brakes on
18:24 Block to Block Duration: 00:58
18:24 Final Fuel: 12475 Lbls
18:24 Spent Fuel: 11397 Lbls
18:24 Flight Length: 270 NM
18:24 TOD Land Length: 73 NM

Exportar CSV

Powered by Drupal - Modified by Danger4k